Time,TemperatureF,DewpointF,PressureIn,WindDirection,WindDirectionDegrees,WindSpeedMPH,WindSpeedGustMPH,Humidity,HourlyPrecipIn,Conditions,Clouds,dailyrainin,SoftwareType,DateUTC
2013-01-01 00:00:00,38.1,20.2,30.15,ESE,112,0.0,0.0,48,0.00,,---,0.00,VWS V14.01,2013-01-01 05:00:00,
2013-01-01 00:03:00,38.1,20.2,30.15,ESE,112,0.0,0.0,48,0.00,,---,0.00,VWS V14.01,2013-01-01 05:03:00,
2013-01-01 00:08:00,38.1,20.2,30.15,ESE,112,0.0,0.0,48,0.00,,---,0.00,VWS V14.01,2013-01-01 05:08:00,
2013-01-01 00:13:00,37.9,20.0,30.15,ESE,112,0.0,1.1,48,0.00,,---,0.00,VWS V14.01,2013-01-01 05:13:00,
2013-01-01 00:18:00,37.9,20.5,30.15,ESE,112,0.0,0.0,49,0.00,,---,0.00,VWS V14.01,2013-01-01 05:18:00,
2013-01-01 00:23:00,37.9,20.5,30.15,ESE,112,0.0,0.0,49,0.00,,---,0.00,VWS V14.01,2013-01-01 05:23:00,
2013-01-01 00:28:00,37.9,20.5,30.15,ESE,112,0.0,0.0,49,0.00,,---,0.00,VWS V14.01,2013-01-01 05:28:00,
2013-01-01 00:33:00,37.9,20.5,30.15,ESE,112,0.0,0.0,49,0.00,,---,0.00,VWS V14.01,2013-01-01 05:33:00,
2013-01-01 00:38:00,37.8,20.3,30.15,ESE,112,0.0,0.0,49,0.00,,---,0.00,VWS V14.01,2013-01-01 05:38:00,
2013-01-01 00:43:00,37.8,20.3,30.15,ESE,112,0.0,0.0,49,0.00,,---,0.00,VWS V14.01,2013-01-01 05:43:00,
2013-01-01 00:48:00,37.6,20.2,30.15,ESE,112,0.0,0.0,49,0.00,,---,0.00,VWS V14.01,2013-01-01 05:48:00,
2013-01-01 00:53:00,37.6,20.2,30.15,ESE,112,0.0,0.0,49,0.00,,---,0.00,VWS V14.01,2013-01-01 05:53:00,
2013-01-01 00:58:00,37.6,20.2,30.15,ESE,112,0.0,2.2,49,0.00,,---,0.00,VWS V14.01,2013-01-01 05:58:00,
2013-01-01 01:03:00,37.4,20.0,30.15,ESE,112,0.0,0.0,49,0.00,,---,0.00,VWS V14.01,2013-01-01 06:03:00,
2013-01-01 01:08:00,37.4,20.5,30.15,ESE,112,0.0,0.0,50,0.00,,---,0.00,VWS V14.01,2013-01-01 06:08:00,
2013-01-01 01:13:00,37.4,20.5,30.15,ESE,112,0.0,0.0,50,0.00,,---,0.00,VWS V14.01,2013-01-01 06:13:00,
2013-01-01 01:18:00,37.4,20.5,30.15,ESE,112,0.0,0.0,50,0.00,,---,0.00,VWS V14.01,2013-01-01 06:18:00,
2013-01-01 01:23:00,37.2,20.3,30.15,ESE,112,0.0,0.0,50,0.00,,---,0.00,VWS V14.01,2013-01-01 06:23:00,
2013-01-01 01:28:00,37.2,20.3,30.15,ESE,112,0.0,0.0,50,0.00,,---,0.00,VWS V14.01,2013-01-01 06:28:00,
2013-01-01 01:33:00,37.2,20.3,30.15,ESE,112,0.0,0.0,50,0.00,,---,0.00,VWS V14.01,2013-01-01 06:33:00,
2013-01-01 01:38:00,37.0,20.6,30.15,ESE,112,0.0,0.0,51,0.00,,---,0.00,VWS V14.01,2013-01-01 06:38:00,
2013-01-01 01:43:00,36.7,19.8,30.15,ESE,112,0.0,0.0,50,0.00,,---,0.00,VWS V14.01,2013-01-01 06:43:00,
2013-01-01 01:48:00,36.9,20.4,30.15,ESE,112,0.0,0.0,51,0.00,,---,0.00,VWS V14.01,2013-01-01 06:48:00,
2013-01-01 01:53:00,36.5,19.6,30.15,ESE,112,0.0,0.0,50,0.00,,---,0.00,VWS V14.01,2013-01-01 06:53:00,
2013-01-01 01:58:00,36.3,19.5,30.15,ESE,112,0.0,0.0,50,0.00,,---,0.00,VWS V14.01,2013-01-01 06:58:00,
2013-01-01 02:03:00,36.1,19.8,30.15,ESE,112,0.0,0.0,51,0.00,,---,0.00,VWS V14.01,2013-01-01 07:03:00,
2013-01-01 02:08:00,36.0,19.6,30.15,ESE,112,0.0,0.0,51,0.00,,---,0.00,VWS V14.01,2013-01-01 07:08:00,
2013-01-01 02:13:00,35.8,19.4,30.15,ESE,112,0.0,0.0,51,0.00,,---,0.00,VWS V14.01,2013-01-01 07:13:00,
2013-01-01 02:18:00,35.8,19.4,30.15,ESE,112,0.0,0.0,51,0.00,,---,0.00,VWS V14.01,2013-01-01 07:18:00,
2013-01-01 02:23:00,35.6,19.3,30.15,ESE,112,0.0,0.0,51,0.00,,---,0.00,VWS V14.01,2013-01-01 07:23:00,
2013-01-01 02:28:00,35.4,19.6,30.15,ESE,112,0.0,0.0,52,0.00,,---,0.00,VWS V14.01,2013-01-01 07:28:00,
2013-01-01 02:33:00,35.6,19.7,30.15,ESE,112,0.0,0.0,52,0.00,,---,0.00,VWS V14.01,2013-01-01 07:33:00,
2013-01-01 02:38:00,35.4,19.6,30.15,ESE,112,0.0,0.0,52,0.00,,---,0.00,VWS V14.01,2013-01-01 07:38:00,
2013-01-01 02:43:00,35.4,20.0,30.15,ESE,112,0.0,0.0,53,0.00,,---,0.00,VWS V14.01,2013-01-01 07:43:00,
2013-01-01 02:48:00,35.4,20.0,30.15,ESE,112,0.0,0.0,53,0.00,,---,0.00,VWS V14.01,2013-01-01 07:48:00,
2013-01-01 02:53:00,35.4,20.0,30.15,ESE,112,0.0,0.0,53,0.00,,---,0.00,VWS V14.01,2013-01-01 07:53:00,
2013-01-01 02:58:00,35.4,20.0,30.15,West,270,1.1,1.6,53,0.00,,---,0.00,VWS V14.01,2013-01-01 07:58:00,
2013-01-01 03:03:00,35.4,20.4,30.15,SSW,202,0.0,0.0,54,0.00,,---,0.00,VWS V14.01,2013-01-01 08:03:00,
2013-01-01 03:08:00,35.2,20.3,30.15,SSW,202,0.0,0.0,54,0.00,,---,0.00,VWS V14.01,2013-01-01 08:08:00,
2013-01-01 03:13:00,35.1,20.1,30.15,SSW,202,0.0,0.0,54,0.00,,---,0.00,VWS V14.01,2013-01-01 08:13:00,
2013-01-01 03:17:00,35.1,20.5,30.12,SSE,158,0.0,0.0,55,0.00,,---,0.00,VWS V14.01,2013-01-01 08:17:00,
2013-01-01 03:22:00,35.4,20.9,30.12,SSE,158,0.0,0.0,55,0.00,,---,0.00,VWS V14.01,2013-01-01 08:22:00,
2013-01-01 03:27:00,35.4,20.9,30.12,West,270,0.0,0.0,55,0.00,,---,0.00,VWS V14.01,2013-01-01 08:27:00,
2013-01-01 03:32:00,35.4,21.3,30.15,SSW,202,0.0,0.0,56,0.00,,---,0.00,VWS V14.01,2013-01-01 08:32:00,
2013-01-01 03:37:00,35.2,20.7,30.15,SSW,202,1.3,1.3,55,0.00,,---,0.00,VWS V14.01,2013-01-01 08:37:00,
2013-01-01 03:42:00,35.2,21.1,30.15,SSE,158,0.0,0.0,56,0.00,,---,0.00,VWS V14.01,2013-01-01 08:42:00,
2013-01-01 03:47:00,35.1,21.0,30.15,SSE,158,0.0,0.0,56,0.00,,---,0.00,VWS V14.01,2013-01-01 08:47:00,
2013-01-01 03:52:00,34.9,20.8,30.15,SSE,158,0.0,0.0,56,0.00,,---,0.00,VWS V14.01,2013-01-01 08:52:00,
2013-01-01 03:57:00,34.9,20.8,30.15,SSE,158,0.0,0.0,56,0.00,,---,0.00,VWS V14.01,2013-01-01 08:57:00,
2013-01-01 04:02:00,34.9,20.8,30.12,SSE,158,0.0,0.0,56,0.00,,---,0.00,VWS V14.01,2013-01-01 09:02:00,
2013-01-01 04:07:00,34.9,21.2,30.12,SSE,158,0.0,0.0,57,0.00,,---,0.00,VWS V14.01,2013-01-01 09:07:00,
2013-01-01 04:12:00,34.7,21.0,30.12,SSE,158,1.3,1.3,57,0.00,,---,0.00,VWS V14.01,2013-01-01 09:12:00,
2013-01-01 04:17:00,34.7,21.0,30.12,SSE,158,0.0,0.0,57,0.00,,---,0.00,VWS V14.01,2013-01-01 09:17:00,
2013-01-01 04:22:00,34.5,21.3,30.12,SSE,158,0.0,0.0,58,0.00,,---,0.00,VWS V14.01,2013-01-01 09:22:00,
2013-01-01 04:27:00,34.5,21.3,30.12,SSE,158,0.0,0.0,58,0.00,,---,0.00,VWS V14.01,2013-01-01 09:27:00,
2013-01-01 04:32:00,34.5,21.3,30.12,SSE,158,0.0,0.0,58,0.00,,---,0.00,VWS V14.01,2013-01-01 09:32:00,
2013-01-01 04:37:00,34.5,21.3,30.12,SE,135,0.0,0.9,58,0.00,,---,0.00,VWS V14.01,2013-01-01 09:37:00,
2013-01-01 04:42:00,34.7,21.5,30.12,WNW,292,2.0,2.0,58,0.00,,---,0.00,VWS V14.01,2013-01-01 09:42:00,
2013-01-01 04:47:00,34.9,22.4,30.12,ESE,112,0.0,1.1,60,0.00,,---,0.00,VWS V14.01,2013-01-01 09:47:00,
2013-01-01 04:52:00,35.1,22.2,30.12,ESE,112,0.0,0.0,59,0.00,,---,0.00,VWS V14.01,2013-01-01 09:52:00,
2013-01-01 04:57:00,35.1,22.2,30.12,ESE,112,0.0,0.0,59,0.00,,---,0.00,VWS V14.01,2013-01-01 09:57:00,
2013-01-01 05:02:00,35.2,22.8,30.12,ESE,112,0.0,0.0,60,0.00,,---,0.00,VWS V14.01,2013-01-01 10:02:00,
2013-01-01 05:07:00,35.2,22.4,30.12,ESE,112,0.0,0.0,59,0.00,,---,0.00,VWS V14.01,2013-01-01 10:07:00,
2013-01-01 05:12:00,35.4,22.9,30.12,ESE,112,0.0,0.0,60,0.00,,---,0.00,VWS V14.01,2013-01-01 10:12:00,
2013-01-01 05:17:00,35.4,22.9,30.12,ESE,112,0.0,0.0,60,0.00,,---,0.00,VWS V14.01,2013-01-01 10:17:00,
2013-01-01 05:22:00,35.4,22.9,30.12,ESE,112,0.0,0.0,60,0.00,,---,0.00,VWS V14.01,2013-01-01 10:22:00,
2013-01-01 05:27:00,35.4,22.9,30.12,ESE,112,0.0,0.0,60,0.00,,---,0.00,VWS V14.01,2013-01-01 10:27:00,
2013-01-01 05:32:00,35.6,23.1,30.12,ESE,112,0.0,0.0,60,0.00,,---,0.00,VWS V14.01,2013-01-01 10:32:00,
2013-01-01 05:37:00,35.8,23.3,30.12,ESE,112,0.0,0.0,60,0.00,,---,0.00,VWS V14.01,2013-01-01 10:37:00,
2013-01-01 05:42:00,35.8,23.3,30.12,WNW,292,0.0,0.0,60,0.00,,---,0.00,VWS V14.01,2013-01-01 10:42:00,
2013-01-01 05:47:00,36.0,23.4,30.15,WNW,292,0.0,0.0,60,0.00,,---,0.00,VWS V14.01,2013-01-01 10:47:00,
2013-01-01 05:52:00,35.8,23.3,30.15,WNW,292,0.0,0.0,60,0.00,,---,0.00,VWS V14.01,2013-01-01 10:52:00,
2013-01-01 05:57:00,36.0,23.4,30.15,WNW,292,0.0,0.0,60,0.00,,---,0.00,VWS V14.01,2013-01-01 10:57:00,
2013-01-01 06:02:00,36.1,23.6,30.15,WNW,292,0.0,0.0,60,0.00,,---,0.00,VWS V14.01,2013-01-01 11:02:00,
2013-01-01 06:07:00,36.1,23.6,30.15,WNW,292,0.0,0.0,60,0.00,,---,0.00,VWS V14.01,2013-01-01 11:07:00,
2013-01-01 06:12:00,36.1,23.6,30.15,WSW,248,0.0,0.0,60,0.00,,---,0.00,VWS V14.01,2013-01-01 11:12:00,
2013-01-01 06:17:00,36.1,23.6,30.09,SE,135,0.0,0.0,60,0.00,,---,0.00,VWS V14.01,2013-01-01 11:17:00,
2013-01-01 06:22:00,36.3,23.8,30.09,SE,135,0.0,0.0,60,0.00,,---,0.00,VWS V14.01,2013-01-01 11:22:00,
2013-01-01 06:27:00,36.3,23.8,30.09,SE,135,0.0,0.0,60,0.00,,---,0.00,VWS V14.01,2013-01-01 11:27:00,
2013-01-01 06:32:00,36.5,24.0,30.12,SE,135,0.0,0.0,60,0.00,,---,0.00,VWS V14.01,2013-01-01 11:32:00,
2013-01-01 06:37:00,36.5,23.5,30.12,SE,135,0.0,0.0,59,0.00,,---,0.00,VWS V14.01,2013-01-01 11:37:00,
2013-01-01 06:42:00,36.7,23.7,30.12,SE,135,0.0,0.0,59,0.00,,---,0.00,VWS V14.01,2013-01-01 11:42:00,
2013-01-01 06:47:00,36.9,23.9,30.15,SE,135,0.0,2.0,59,0.00,,---,0.00,VWS V14.01,2013-01-01 11:47:00,
2013-01-01 06:52:00,37.0,23.6,30.15,NNW,338,0.0,0.0,58,0.00,,---,0.00,VWS V14.01,2013-01-01 11:52:00,
2013-01-01 06:57:00,37.4,23.6,30.15,SE,135,0.0,0.0,57,0.00,,---,0.00,VWS V14.01,2013-01-01 11:57:00,
2013-01-01 07:02:00,37.6,23.3,30.15,SSE,158,0.0,1.3,56,0.00,,---,0.00,VWS V14.01,2013-01-01 12:02:00,
2013-01-01 07:07:00,38.1,23.0,30.15,ESE,112,0.9,0.9,54,0.00,,---,0.00,VWS V14.01,2013-01-01 12:07:00,
2013-01-01 07:12:00,38.5,22.9,30.15,ESE,112,0.0,0.0,53,0.00,,---,0.00,VWS V14.01,2013-01-01 12:12:00,
2013-01-01 07:17:00,38.8,22.3,30.15,SSE,158,4.0,6.0,51,0.00,,---,0.00,VWS V14.01,2013-01-01 12:17:00,
2013-01-01 07:22:00,39.2,22.1,30.15,SSE,158,1.3,1.3,50,0.00,,---,0.00,VWS V14.01,2013-01-01 12:22:00,
2013-01-01 07:27:00,39.0,22.4,30.15,SSE,158,0.0,0.0,51,0.00,,---,0.00,VWS V14.01,2013-01-01 12:27:00,
2013-01-01 07:32:00,39.2,22.1,30.12,ESE,112,0.0,0.0,50,0.00,,---,0.00,VWS V14.01,2013-01-01 12:32:00,
2013-01-01 07:37:00,39.2,22.1,30.12,ESE,112,2.0,2.0,50,0.00,,---,0.00,VWS V14.01,2013-01-01 12:37:00,
2013-01-01 07:42:00,39.2,22.1,30.12,East,90,1.3,1.3,50,0.00,,---,0.00,VWS V14.01,2013-01-01 12:42:00,
2013-01-01 07:47:00,39.7,22.2,30.12,East,90,2.0,2.0,49,0.00,,---,0.00,VWS V14.01,2013-01-01 12:47:00,
2013-01-01 07:52:00,39.4,21.8,30.12,East,90,0.0,0.0,49,0.00,,---,0.00,VWS V14.01,2013-01-01 12:52:00,
2013-01-01 07:57:00,39.4,21.8,30.12,East,90,0.0,0.0,49,0.00,,---,0.00,VWS V14.01,2013-01-01 12:57:00,
2013-01-01 08:02:00,39.4,21.8,30.15,East,90,1.3,1.6,49,0.00,,---,0.00,VWS V14.01,2013-01-01 13:02:00,
2013-01-01 08:07:00,39.4,21.8,30.15,East,90,0.0,0.0,49,0.00,,---,0.00,VWS V14.01,2013-01-01 13:07:00,
2013-01-01 08:12:00,39.2,22.1,30.15,SSE,158,0.0,0.0,50,0.00,,---,0.00,VWS V14.01,2013-01-01 13:12:00,
2013-01-01 08:17:00,39.2,22.1,30.15,SSE,158,0.0,0.0,50,0.00,,---,0.00,VWS V14.01,2013-01-01 13:17:00,
2013-01-01 08:22:00,39.4,22.3,30.15,SSE,158,0.0,0.0,50,0.00,,---,0.00,VWS V14.01,2013-01-01 13:22:00,
2013-01-01 08:27:00,39.6,22.5,30.15,WSW,248,0.0,1.3,50,0.00,,---,0.00,VWS V14.01,2013-01-01 13:27:00,
2013-01-01 08:32:00,39.7,22.6,30.15,WSW,248,0.0,0.0,50,0.00,,---,0.00,VWS V14.01,2013-01-01 13:32:00,
2013-01-01 08:37:00,39.9,22.8,30.15,WSW,248,0.0,0.0,50,0.00,,---,0.00,VWS V14.01,2013-01-01 13:37:00,
2013-01-01 08:42:00,39.9,22.8,30.15,West,270,0.0,0.0,50,0.00,,---,0.00,VWS V14.01,2013-01-01 13:42:00,
2013-01-01 08:47:00,40.1,23.4,30.15,West,270,0.0,0.0,51,0.00,,---,0.00,VWS V14.01,2013-01-01 13:47:00,
2013-01-01 08:52:00,40.3,23.6,30.15,SSE,158,0.0,0.0,51,0.00,,---,0.00,VWS V14.01,2013-01-01 13:52:00,
2013-01-01 08:57:00,40.3,23.6,30.15,SSE,158,0.0,0.0,51,0.00,,---,0.00,VWS V14.01,2013-01-01 13:57:00,
2013-01-01 09:02:00,40.6,23.9,30.15,SSE,158,0.0,0.0,51,0.00,,---,0.00,VWS V14.01,2013-01-01 14:02:00,
2013-01-01 09:07:00,41.0,23.8,30.15,SSE,158,0.0,0.0,50,0.00,,---,0.00,VWS V14.01,2013-01-01 14:07:00,
2013-01-01 09:12:00,41.0,23.8,30.15,SSE,158,0.0,0.0,50,0.00,,---,0.00,VWS V14.01,2013-01-01 14:12:00,
2013-01-01 09:17:00,41.2,24.0,30.15,SSE,158,0.0,0.0,50,0.00,,---,0.00,VWS V14.01,2013-01-01 14:17:00,
2013-01-01 09:22:00,41.4,24.1,30.15,WNW,292,0.0,0.0,50,0.00,,---,0.00,VWS V14.01,2013-01-01 14:22:00,
2013-01-01 09:27:00,41.5,24.3,30.15,NW,315,1.6,1.6,50,0.00,,---,0.00,VWS V14.01,2013-01-01 14:27:00,
2013-01-01 09:32:00,41.7,24.0,30.15,SSE,158,0.0,0.0,49,0.00,,---,0.00,VWS V14.01,2013-01-01 14:32:00,
2013-01-01 09:37:00,42.1,24.3,30.15,SSE,158,0.0,0.0,49,0.00,,---,0.00,VWS V14.01,2013-01-01 14:37:00,
2013-01-01 09:42:00,42.3,24.5,30.15,WSW,248,0.9,0.9,49,0.00,,---,0.00,VWS V14.01,2013-01-01 14:42:00,
2013-01-01 09:47:00,42.4,24.6,30.15,WNW,292,0.0,1.6,49,0.00,,---,0.00,VWS V14.01,2013-01-01 14:47:00,
2013-01-01 09:52:00,42.8,24.0,30.15,SE,135,1.1,1.6,47,0.00,,---,0.00,VWS V14.01,2013-01-01 14:52:00,
2013-01-01 09:57:00,43.0,24.6,30.15,WNW,292,2.5,2.5,48,0.00,,---,0.00,VWS V14.01,2013-01-01 14:57:00,
2013-01-01 10:02:00,43.3,24.0,30.15,SE,135,0.0,0.9,46,0.00,,---,0.00,VWS V14.01,2013-01-01 15:02:00,
2013-01-01 10:07:00,43.3,24.0,30.15,ESE,112,0.0,2.5,46,0.00,,---,0.00,VWS V14.01,2013-01-01 15:07:00,
2013-01-01 10:12:00,43.5,24.1,30.15,SE,135,3.4,3.4,46,0.00,,---,0.00,VWS V14.01,2013-01-01 15:12:00,
2013-01-01 10:17:00,43.5,23.1,30.15,WNW,292,2.9,3.6,44,0.00,,---,0.00,VWS V14.01,2013-01-01 15:17:00,
2013-01-01 10:22:00,43.5,23.1,30.15,West,270,3.1,4.3,44,0.00,,---,0.00,VWS V14.01,2013-01-01 15:22:00,
2013-01-01 10:27:00,43.5,23.1,30.15,East,90,0.0,0.0,44,0.00,,---,0.00,VWS V14.01,2013-01-01 15:27:00,
2013-01-01 10:32:00,43.7,23.2,30.15,SSE,158,1.1,2.5,44,0.00,,---,0.00,VWS V14.01,2013-01-01 15:32:00,
2013-01-01 10:37:00,43.7,23.2,30.15,SE,135,3.6,3.6,44,0.00,,---,0.00,VWS V14.01,2013-01-01 15:37:00,
2013-01-01 10:42:00,43.9,23.4,30.15,WNW,292,0.0,3.1,44,0.00,,---,0.00,VWS V14.01,2013-01-01 15:42:00,
2013-01-01 10:47:00,44.1,24.1,30.12,WNW,292,0.0,0.0,45,0.00,,---,0.00,VWS V14.01,2013-01-01 15:47:00,
2013-01-01 10:52:00,44.1,24.1,30.12,WNW,292,0.0,0.0,45,0.00,,---,0.00,VWS V14.01,2013-01-01 15:52:00,
2013-01-01 10:57:00,44.2,24.3,30.12,WNW,292,0.0,0.0,45,0.00,,---,0.00,VWS V14.01,2013-01-01 15:57:00,
2013-01-01 11:02:00,44.4,24.4,30.15,SE,135,0.0,0.0,45,0.00,,---,0.00,VWS V14.01,2013-01-01 16:02:00,
2013-01-01 11:07:00,44.4,24.4,30.15,WNW,292,1.6,1.6,45,0.00,,---,0.00,VWS V14.01,2013-01-01 16:07:00,
2013-01-01 11:12:00,44.6,24.0,30.15,WNW,292,0.0,0.0,44,0.00,,---,0.00,VWS V14.01,2013-01-01 16:12:00,
2013-01-01 11:17:00,44.6,23.5,30.12,WNW,292,2.0,2.9,43,0.00,,---,0.00,VWS V14.01,2013-01-01 16:17:00,
2013-01-01 11:22:00,44.6,23.5,30.12,WSW,248,0.0,1.6,43,0.00,,---,0.00,VWS V14.01,2013-01-01 16:22:00,
2013-01-01 11:27:00,44.6,23.5,30.12,ESE,112,1.6,4.0,43,0.00,,---,0.00,VWS V14.01,2013-01-01 16:27:00,
2013-01-01 11:32:00,44.6,23.5,30.12,WNW,292,1.6,1.6,43,0.00,,---,0.00,VWS V14.01,2013-01-01 16:32:00,
2013-01-01 11:37:00,44.8,23.7,30.12,West,270,1.6,1.6,43,0.00,,---,0.00,VWS V14.01,2013-01-01 16:37:00,
2013-01-01 11:42:00,44.8,23.7,30.12,ENE,68,3.4,3.4,43,0.00,,---,0.00,VWS V14.01,2013-01-01 16:42:00,
2013-01-01 11:47:00,44.8,23.7,30.09,West,270,0.0,0.0,43,0.00,,---,0.00,VWS V14.01,2013-01-01 16:47:00,
2013-01-01 11:52:00,45.0,23.8,30.09,ESE,112,1.3,2.0,43,0.00,,---,0.00,VWS V14.01,2013-01-01 16:52:00,
2013-01-01 11:57:00,45.1,24.0,30.09,ESE,112,0.0,1.3,43,0.00,,---,0.00,VWS V14.01,2013-01-01 16:57:00,
2013-01-01 12:02:00,45.1,24.0,30.06,ESE,112,0.0,0.0,43,0.00,,---,0.00,VWS V14.01,2013-01-01 17:02:00,
2013-01-01 12:07:00,45.1,24.0,30.06,WNW,292,0.0,2.0,43,0.00,,---,0.00,VWS V14.01,2013-01-01 17:07:00,
2013-01-01 12:12:00,45.3,24.2,30.06,WNW,292,0.0,0.9,43,0.00,,---,0.00,VWS V14.01,2013-01-01 17:12:00,
2013-01-01 12:17:00,45.5,24.3,30.09,East,90,0.0,1.6,43,0.00,,---,0.00,VWS V14.01,2013-01-01 17:17:00,
2013-01-01 12:22:00,45.9,24.6,30.09,East,90,0.9,1.6,43,0.00,,---,0.00,VWS V14.01,2013-01-01 17:22:00,
2013-01-01 12:27:00,45.7,24.5,30.09,SE,135,1.1,1.3,43,0.00,,---,0.00,VWS V14.01,2013-01-01 17:27:00,
2013-01-01 12:32:00,45.9,24.1,30.09,SE,135,0.0,0.0,42,0.00,,---,0.00,VWS V14.01,2013-01-01 17:32:00,
2013-01-01 12:37:00,46.0,24.2,30.09,NNE,22,0.9,2.0,42,0.00,,---,0.00,VWS V14.01,2013-01-01 17:37:00,
2013-01-01 12:42:00,46.0,23.7,30.09,WNW,292,3.8,3.8,41,0.00,,---,0.00,VWS V14.01,2013-01-01 17:42:00,
2013-01-01 12:47:00,46.4,24.0,30.09,WNW,292,1.1,1.3,41,0.00,,---,0.00,VWS V14.01,2013-01-01 17:47:00,
2013-01-01 12:52:00,46.6,24.2,30.09,WNW,292,1.1,1.6,41,0.00,,---,0.00,VWS V14.01,2013-01-01 17:52:00,
2013-01-01 12:57:00,46.6,24.2,30.09,ESE,112,1.1,1.6,41,0.00,,---,0.00,VWS V14.01,2013-01-01 17:57:00,
2013-01-01 13:02:00,46.6,24.2,30.06,ESE,112,0.0,0.9,41,0.00,,---,0.00,VWS V14.01,2013-01-01 18:02:00,
2013-01-01 13:07:00,46.0,23.7,30.06,WNW,292,3.1,3.1,41,0.00,,---,0.00,VWS V14.01,2013-01-01 18:07:00,
2013-01-01 13:12:00,45.9,23.5,30.06,SE,135,0.0,1.3,41,0.00,,---,0.00,VWS V14.01,2013-01-01 18:12:00,
2013-01-01 13:17:00,46.2,23.8,30.06,SE,135,0.0,0.0,41,0.00,,---,0.00,VWS V14.01,2013-01-01 18:17:00,
2013-01-01 13:22:00,46.2,23.8,30.06,SE,135,1.1,1.1,41,0.00,,---,0.00,VWS V14.01,2013-01-01 18:22:00,
2013-01-01 13:27:00,46.2,23.8,30.06,South,180,0.0,0.0,41,0.00,,---,0.00,VWS V14.01,2013-01-01 18:27:00,
2013-01-01 13:32:00,46.0,23.7,30.06,West,270,2.9,3.8,41,0.00,,---,0.00,VWS V14.01,2013-01-01 18:32:00,
2013-01-01 13:37:00,45.7,23.4,30.06,West,270,2.2,2.2,41,0.00,,---,0.00,VWS V14.01,2013-01-01 18:37:00,
2013-01-01 13:42:00,45.5,23.2,30.06,SSE,158,0.0,0.0,41,0.00,,---,0.00,VWS V14.01,2013-01-01 18:42:00,
2013-01-01 13:47:00,45.5,23.2,30.06,NW,315,1.3,2.9,41,0.00,,---,0.00,VWS V14.01,2013-01-01 18:47:00,
2013-01-01 13:52:00,45.3,23.0,30.06,WNW,292,0.0,2.2,41,0.00,,---,0.00,VWS V14.01,2013-01-01 18:52:00,
2013-01-01 13:57:00,45.3,23.0,30.06,WNW,292,1.6,2.0,41,0.00,,---,0.00,VWS V14.01,2013-01-01 18:57:00,
2013-01-01 14:02:00,45.3,23.0,30.06,WSW,248,2.0,2.2,41,0.00,,---,0.00,VWS V14.01,2013-01-01 19:02:00,
2013-01-01 14:07:00,45.1,22.9,30.06,ENE,68,0.9,2.5,41,0.00,,---,0.00,VWS V14.01,2013-01-01 19:07:00,
2013-01-01 14:12:00,45.1,22.9,30.06,ENE,68,2.7,2.7,41,0.00,,---,0.00,VWS V14.01,2013-01-01 19:12:00,
2013-01-01 14:17:00,45.0,22.7,30.06,WSW,248,0.9,2.7,41,0.00,,---,0.00,VWS V14.01,2013-01-01 19:17:00,
2013-01-01 14:22:00,45.0,22.7,30.06,East,90,0.0,1.3,41,0.00,,---,0.00,VWS V14.01,2013-01-01 19:22:00,
2013-01-01 14:27:00,44.8,22.5,30.06,ESE,112,1.1,2.0,41,0.00,,---,0.00,VWS V14.01,2013-01-01 19:27:00,
2013-01-01 14:32:00,44.8,23.1,30.09,WSW,248,0.0,2.2,42,0.00,,---,0.00,VWS V14.01,2013-01-01 19:32:00,
2013-01-01 14:37:00,44.6,22.4,30.09,WNW,292,2.9,2.9,41,0.00,,---,0.00,VWS V14.01,2013-01-01 19:37:00,
2013-01-01 14:42:00,44.6,22.4,30.09,ENE,68,1.1,3.1,41,0.00,,---,0.00,VWS V14.01,2013-01-01 19:42:00,
2013-01-01 14:47:00,44.4,22.8,30.06,SSE,158,0.9,2.7,42,0.00,,---,0.00,VWS V14.01,2013-01-01 19:47:00,
2013-01-01 14:52:00,44.4,22.8,30.06,SSE,158,3.1,3.6,42,0.00,,---,0.00,VWS V14.01,2013-01-01 19:52:00,
2013-01-01 14:57:00,44.4,22.8,30.06,West,270,2.2,2.2,42,0.00,,---,0.00,VWS V14.01,2013-01-01 19:57:00,
2013-01-01 15:02:00,44.2,22.6,30.09,SSE,158,0.0,0.0,42,0.00,,---,0.00,VWS V14.01,2013-01-01 20:02:00,
2013-01-01 15:07:00,44.2,22.6,30.09,SE,135,1.3,1.6,42,0.00,,---,0.00,VWS V14.01,2013-01-01 20:07:00,
2013-01-01 15:12:00,44.2,22.6,30.09,SE,135,0.0,0.0,42,0.00,,---,0.00,VWS V14.01,2013-01-01 20:12:00,
2013-01-01 15:17:00,44.1,22.5,30.09,WSW,248,1.3,2.9,42,0.00,,---,0.00,VWS V14.01,2013-01-01 20:17:00,
2013-01-01 15:22:00,44.1,22.5,30.09,SSE,158,1.1,3.8,42,0.00,,---,0.00,VWS V14.01,2013-01-01 20:22:00,
2013-01-01 15:27:00,44.1,22.5,30.09,ENE,68,0.0,0.0,42,0.00,,---,0.00,VWS V14.01,2013-01-01 20:27:00,
2013-01-01 15:32:00,44.1,22.5,30.09,SSE,158,0.9,1.1,42,0.00,,---,0.00,VWS V14.01,2013-01-01 20:32:00,
2013-01-01 15:37:00,43.9,22.3,30.09,ESE,112,1.1,2.0,42,0.00,,---,0.00,VWS V14.01,2013-01-01 20:37:00,
2013-01-01 15:42:00,43.9,22.3,30.09,NNW,338,3.4,3.6,42,0.00,,---,0.00,VWS V14.01,2013-01-01 20:42:00,
2013-01-01 15:47:00,43.7,22.1,30.09,NNE,22,0.0,2.2,42,0.00,,---,0.00,VWS V14.01,2013-01-01 20:47:00,
2013-01-01 15:52:00,43.5,22.5,30.09,SSE,158,0.0,3.1,43,0.00,,---,0.00,VWS V14.01,2013-01-01 20:52:00,
2013-01-01 15:57:00,43.5,22.0,30.09,West,270,1.3,3.4,42,0.00,,---,0.00,VWS V14.01,2013-01-01 20:57:00,
2013-01-01 16:02:00,43.3,22.4,30.09,NNW,338,0.0,1.3,43,0.00,,---,0.00,VWS V14.01,2013-01-01 21:02:00,
2013-01-01 16:07:00,43.2,22.2,30.09,East,90,0.0,0.0,43,0.00,,---,0.00,VWS V14.01,2013-01-01 21:07:00,
2013-01-01 16:12:00,43.0,22.0,30.09,SW,225,0.0,0.0,43,0.00,,---,0.00,VWS V14.01,2013-01-01 21:12:00,
2013-01-01 16:17:00,42.8,21.9,30.09,SSE,158,0.0,0.0,43,0.00,,---,0.00,VWS V14.01,2013-01-01 21:17:00,
2013-01-01 16:22:00,42.4,22.1,30.09,SSE,158,0.0,0.0,44,0.00,,---,0.00,VWS V14.01,2013-01-01 21:22:00,
2013-01-01 16:27:00,42.3,21.9,30.09,SSE,158,0.0,0.0,44,0.00,,---,0.00,VWS V14.01,2013-01-01 21:27:00,
2013-01-01 16:32:00,42.3,21.9,30.09,SSE,158,0.0,0.0,44,0.00,,---,0.00,VWS V14.01,2013-01-01 21:32:00,
2013-01-01 16:37:00,41.9,22.1,30.09,SSE,158,0.0,0.0,45,0.00,,---,0.00,VWS V14.01,2013-01-01 21:37:00,
2013-01-01 16:42:00,41.7,22.5,30.09,SE,135,0.9,2.7,46,0.00,,---,0.00,VWS V14.01,2013-01-01 21:42:00,
2013-01-01 16:47:00,41.7,22.5,30.09,SSE,158,1.1,2.9,46,0.00,,---,0.00,VWS V14.01,2013-01-01 21:47:00,
2013-01-01 16:52:00,42.1,22.8,30.09,WNW,292,0.0,1.3,46,0.00,,---,0.00,VWS V14.01,2013-01-01 21:52:00,
2013-01-01 16:57:00,41.9,22.1,30.09,WSW,248,0.0,0.0,45,0.00,,---,0.00,VWS V14.01,2013-01-01 21:57:00,
2013-01-01 17:02:00,41.7,22.5,30.09,NW,315,0.9,0.9,46,0.00,,---,0.00,VWS V14.01,2013-01-01 22:02:00,
2013-01-01 17:07:00,41.7,22.5,30.09,WNW,292,0.0,0.9,46,0.00,,---,0.00,VWS V14.01,2013-01-01 22:07:00,
2013-01-01 17:12:00,41.7,22.5,30.09,ESE,112,0.0,0.0,46,0.00,,---,0.00,VWS V14.01,2013-01-01 22:12:00,
2013-01-01 17:17:00,41.5,22.3,30.09,NNE,22,0.0,0.0,46,0.00,,---,0.00,VWS V14.01,2013-01-01 22:17:00,
2013-01-01 17:22:00,41.5,22.3,30.09,WSW,248,0.0,0.0,46,0.00,,---,0.00,VWS V14.01,2013-01-01 22:22:00,
2013-01-01 17:27:00,41.5,22.3,30.09,SE,135,0.0,1.1,46,0.00,,---,0.00,VWS V14.01,2013-01-01 22:27:00,
2013-01-01 17:32:00,41.4,22.1,30.09,SE,135,0.0,0.0,46,0.00,,---,0.00,VWS V14.01,2013-01-01 22:32:00,
2013-01-01 17:37:00,41.2,22.5,30.09,SE,135,0.0,0.0,47,0.00,,---,0.00,VWS V14.01,2013-01-01 22:37:00,
2013-01-01 17:42:00,41.0,22.8,30.09,SE,135,0.0,0.0,48,0.00,,---,0.00,VWS V14.01,2013-01-01 22:42:00,
2013-01-01 17:47:00,40.8,22.7,30.09,SE,135,0.0,0.0,48,0.00,,---,0.00,VWS V14.01,2013-01-01 22:47:00,
2013-01-01 17:52:00,40.6,23.0,30.09,SE,135,0.0,0.0,49,0.00,,---,0.00,VWS V14.01,2013-01-01 22:52:00,
2013-01-01 17:57:00,40.5,22.8,30.09,SE,135,0.0,0.0,49,0.00,,---,0.00,VWS V14.01,2013-01-01 22:57:00,
2013-01-01 18:02:00,40.5,22.8,30.12,SSE,158,1.1,3.1,49,0.00,,---,0.00,VWS V14.01,2013-01-01 23:02:00,
2013-01-01 18:07:00,40.6,23.0,30.12,South,180,0.0,0.9,49,0.00,,---,0.00,VWS V14.01,2013-01-01 23:07:00,
2013-01-01 18:12:00,40.8,23.1,30.12,East,90,0.0,0.0,49,0.00,,---,0.00,VWS V14.01,2013-01-01 23:12:00,
2013-01-01 18:17:00,40.8,23.1,30.12,East,90,0.0,0.0,49,0.00,,---,0.00,VWS V14.01,2013-01-01 23:17:00,
2013-01-01 18:22:00,40.8,23.1,30.12,NNE,22,0.0,0.0,49,0.00,,---,0.00,VWS V14.01,2013-01-01 23:22:00,
2013-01-01 18:27:00,41.0,22.8,30.12,ESE,112,0.0,2.5,48,0.00,,---,0.00,VWS V14.01,2013-01-01 23:27:00,
2013-01-01 18:32:00,41.0,22.8,30.12,WNW,292,1.1,1.6,48,0.00,,---,0.00,VWS V14.01,2013-01-01 23:32:00,
2013-01-01 18:37:00,41.0,22.8,30.12,WNW,292,1.3,2.7,48,0.00,,---,0.00,VWS V14.01,2013-01-01 23:37:00,
2013-01-01 18:42:00,41.2,23.0,30.12,ESE,112,0.0,0.9,48,0.00,,---,0.00,VWS V14.01,2013-01-01 23:42:00,
2013-01-01 18:47:00,41.2,23.0,30.12,ESE,112,0.0,0.0,48,0.00,,---,0.00,VWS V14.01,2013-01-01 23:47:00,
2013-01-01 18:52:00,41.0,22.8,30.12,ESE,112,0.0,0.0,48,0.00,,---,0.00,VWS V14.01,2013-01-01 23:52:00,
2013-01-01 18:57:00,41.0,22.8,30.12,ESE,112,1.3,1.3,48,0.00,,---,0.00,VWS V14.01,2013-01-01 23:57:00,
2013-01-01 19:02:00,41.0,22.8,30.12,ESE,112,0.0,0.0,48,0.00,,---,0.00,VWS V14.01,2013-01-02 00:02:00,
2013-01-01 19:07:00,41.0,22.8,30.12,ESE,112,1.3,2.0,48,0.00,,---,0.00,VWS V14.01,2013-01-02 00:07:00,
2013-01-01 19:12:00,40.8,23.1,30.12,ESE,112,0.0,0.0,49,0.00,,---,0.00,VWS V14.01,2013-01-02 00:12:00,
2013-01-01 19:17:00,40.8,23.1,30.15,ESE,112,0.0,0.0,49,0.00,,---,0.00,VWS V14.01,2013-01-02 00:17:00,
2013-01-01 19:22:00,40.8,23.1,30.15,ESE,112,1.6,2.9,49,0.00,,---,0.00,VWS V14.01,2013-01-02 00:22:00,
2013-01-01 19:27:00,40.8,23.1,30.15,ESE,112,2.0,2.5,49,0.00,,---,0.00,VWS V14.01,2013-01-02 00:27:00,
2013-01-01 19:32:00,40.6,23.0,30.12,ESE,112,0.9,0.9,49,0.00,,---,0.00,VWS V14.01,2013-01-02 00:32:00,
2013-01-01 19:37:00,40.6,23.0,30.12,ESE,112,0.0,0.0,49,0.00,,---,0.00,VWS V14.01,2013-01-02 00:37:00,
2013-01-01 19:42:00,40.5,22.8,30.12,ESE,112,0.0,0.0,49,0.00,,---,0.00,VWS V14.01,2013-01-02 00:42:00,
2013-01-01 19:47:00,40.5,22.8,30.15,SSE,158,2.2,2.2,49,0.00,,---,0.00,VWS V14.01,2013-01-02 00:47:00,
2013-01-01 19:52:00,40.6,23.0,30.15,SSE,158,0.0,0.0,49,0.00,,---,0.00,VWS V14.01,2013-01-02 00:52:00,
2013-01-01 19:57:00,40.6,23.0,30.15,WNW,292,0.0,0.0,49,0.00,,---,0.00,VWS V14.01,2013-01-02 00:57:00,
2013-01-01 20:02:00,40.6,23.0,30.15,ESE,112,2.0,2.0,49,0.00,,---,0.00,VWS V14.01,2013-01-02 01:02:00,
2013-01-01 20:07:00,40.6,23.0,30.15,NW,315,2.0,2.0,49,0.00,,---,0.00,VWS V14.01,2013-01-02 01:07:00,
2013-01-01 20:12:00,40.6,23.0,30.15,NW,315,0.0,1.1,49,0.00,,---,0.00,VWS V14.01,2013-01-02 01:12:00,
2013-01-01 20:17:00,40.6,23.0,30.15,NW,315,0.0,0.0,49,0.00,,---,0.00,VWS V14.01,2013-01-02 01:17:00,
2013-01-01 20:22:00,40.5,22.8,30.15,East,90,0.0,0.0,49,0.00,,---,0.00,VWS V14.01,2013-01-02 01:22:00,
2013-01-01 20:27:00,40.5,22.8,30.15,East,90,0.0,0.9,49,0.00,,---,0.00,VWS V14.01,2013-01-02 01:27:00,
2013-01-01 20:32:00,40.3,22.7,30.12,WSW,248,2.9,2.9,49,0.00,,---,0.00,VWS V14.01,2013-01-02 01:32:00,
2013-01-01 20:37:00,40.5,22.8,30.12,WSW,248,1.6,2.5,49,0.00,,---,0.00,VWS V14.01,2013-01-02 01:37:00,
2013-01-01 20:42:00,40.5,22.8,30.12,WNW,292,3.1,4.9,49,0.00,,---,0.00,VWS V14.01,2013-01-02 01:42:00,
2013-01-01 20:47:00,40.5,22.8,30.15,WNW,292,0.0,0.0,49,0.00,,---,0.00,VWS V14.01,2013-01-02 01:47:00,
2013-01-01 20:52:00,40.3,22.7,30.15,WNW,292,0.9,2.7,49,0.00,,---,0.00,VWS V14.01,2013-01-02 01:52:00,
2013-01-01 20:57:00,40.3,22.7,30.15,WNW,292,1.1,1.3,49,0.00,,---,0.00,VWS V14.01,2013-01-02 01:57:00,
2013-01-01 21:02:00,40.3,22.7,30.15,SE,135,2.2,2.2,49,0.00,,---,0.00,VWS V14.01,2013-01-02 02:02:00,
2013-01-01 21:07:00,40.3,22.7,30.15,WNW,292,1.1,1.1,49,0.00,,---,0.00,VWS V14.01,2013-01-02 02:07:00,
2013-01-01 21:12:00,40.3,22.7,30.15,NW,315,1.1,1.6,49,0.00,,---,0.00,VWS V14.01,2013-01-02 02:12:00,
2013-01-01 21:17:00,40.3,22.7,30.15,NNW,338,2.0,2.7,49,0.00,,---,0.00,VWS V14.01,2013-01-02 02:17:00,
2013-01-01 21:22:00,40.3,22.7,30.15,WNW,292,2.7,3.1,49,0.00,,---,0.00,VWS V14.01,2013-01-02 02:22:00,
2013-01-01 21:27:00,40.3,22.7,30.15,SSW,202,2.5,3.1,49,0.00,,---,0.00,VWS V14.01,2013-01-02 02:27:00,
2013-01-01 21:32:00,40.3,22.7,30.12,SW,225,4.9,4.9,49,0.00,,---,0.00,VWS V14.01,2013-01-02 02:32:00,
2013-01-01 21:37:00,40.3,22.7,30.12,NW,315,0.0,2.0,49,0.00,,---,0.00,VWS V14.01,2013-01-02 02:37:00,
2013-01-01 21:42:00,40.3,22.7,30.12,WNW,292,2.7,2.7,49,0.00,,---,0.00,VWS V14.01,2013-01-02 02:42:00,
2013-01-01 21:47:00,40.3,22.7,30.18,ENE,68,1.3,2.0,49,0.00,,---,0.00,VWS V14.01,2013-01-02 02:47:00,
2013-01-01 21:52:00,40.3,22.2,30.18,WNW,292,1.6,2.7,48,0.00,,---,0.00,VWS V14.01,2013-01-02 02:52:00,
2013-01-01 21:57:00,40.3,22.2,30.18,WNW,292,2.9,4.7,48,0.00,,---,0.00,VWS V14.01,2013-01-02 02:57:00,
2013-01-01 22:02:00,40.3,22.2,30.15,West,270,0.0,3.1,48,0.00,,---,0.00,VWS V14.01,2013-01-02 03:02:00,
2013-01-01 22:07:00,40.1,22.0,30.15,WSW,248,4.7,4.7,48,0.00,,---,0.00,VWS V14.01,2013-01-02 03:07:00,
2013-01-01 22:12:00,40.1,22.0,30.15,WNW,292,1.3,2.9,48,0.00,,---,0.00,VWS V14.01,2013-01-02 03:12:00,
2013-01-01 22:17:00,39.9,21.8,30.15,WNW,292,1.1,1.1,48,0.00,,---,0.00,VWS V14.01,2013-01-02 03:17:00,
2013-01-01 22:22:00,39.9,22.3,30.15,ESE,112,0.9,1.3,49,0.00,,---,0.00,VWS V14.01,2013-01-02 03:22:00,
2013-01-01 22:27:00,39.9,22.3,30.15,SSW,202,1.1,2.7,49,0.00,,---,0.00,VWS V14.01,2013-01-02 03:27:00,
2013-01-01 22:32:00,39.9,22.3,30.15,NW,315,2.0,2.2,49,0.00,,---,0.00,VWS V14.01,2013-01-02 03:32:00,
2013-01-01 22:37:00,39.7,22.2,30.15,WNW,292,1.3,2.9,49,0.00,,---,0.00,VWS V14.01,2013-01-02 03:37:00,
2013-01-01 22:42:00,39.7,22.2,30.15,WSW,248,3.4,3.8,49,0.00,,---,0.00,VWS V14.01,2013-01-02 03:42:00,
2013-01-01 22:47:00,39.7,22.2,30.15,WNW,292,0.0,2.0,49,0.00,,---,0.00,VWS V14.01,2013-01-02 03:47:00,
2013-01-01 22:52:00,39.6,22.0,30.15,WNW,292,0.0,0.0,49,0.00,,---,0.00,VWS V14.01,2013-01-02 03:52:00,
2013-01-01 22:57:00,39.6,22.0,30.15,WNW,292,2.0,2.0,49,0.00,,---,0.00,VWS V14.01,2013-01-02 03:57:00,
2013-01-01 23:02:00,39.6,22.5,30.15,West,270,4.9,4.9,50,0.00,,---,0.00,VWS V14.01,2013-01-02 04:02:00,
2013-01-01 23:07:00,39.6,22.0,30.15,NW,315,0.0,0.0,49,0.00,,---,0.00,VWS V14.01,2013-01-02 04:07:00,
2013-01-01 23:12:00,39.4,21.8,30.15,WSW,248,3.1,3.1,49,0.00,,---,0.00,VWS V14.01,2013-01-02 04:12:00,
2013-01-01 23:17:00,39.4,21.8,30.15,WNW,292,0.9,0.9,49,0.00,,---,0.00,VWS V14.01,2013-01-02 04:17:00,
2013-01-01 23:22:00,39.4,22.3,30.15,WNW,292,2.0,2.0,50,0.00,,---,0.00,VWS V14.01,2013-01-02 04:22:00,
2013-01-01 23:27:00,39.2,22.1,30.15,SW,225,7.4,7.4,50,0.00,,---,0.00,VWS V14.01,2013-01-02 04:27:00,
2013-01-01 23:32:00,39.2,21.7,30.15,West,270,4.9,4.9,49,0.00,,---,0.00,VWS V14.01,2013-01-02 04:32:00,
2013-01-01 23:37:00,39.2,21.7,30.15,WSW,248,0.0,3.4,49,0.00,,---,0.00,VWS V14.01,2013-01-02 04:37:00,
2013-01-01 23:42:00,39.0,21.5,30.15,WNW,292,0.0,0.0,49,0.00,,---,0.00,VWS V14.01,2013-01-02 04:42:00,
2013-01-01 23:47:00,38.8,21.8,30.15,WNW,292,0.0,0.0,50,0.00,,---,0.00,VWS V14.01,2013-01-02 04:47:00,
2013-01-01 23:52:00,38.7,21.6,30.15,WNW,292,0.0,0.0,50,0.00,,---,0.00,VWS V14.01,2013-01-02 04:52:00,
2013-01-01 23:57:00,38.7,21.6,30.15,NW,315,0.0,0.0,50,0.00,,---,0.00,VWS V14.01,2013-01-02 04:57:00,